createdAt,value
2023-01-09T00:01:06.395Z,7.90
2023-01-09T00:06:14.513Z,7.90
2023-01-09T00:11:23.148Z,7.96
2023-01-09T00:16:31.788Z,8.19
2023-01-09T00:21:40.632Z,7.90
2023-01-09T00:26:48.963Z,8.27
2023-01-09T00:31:57.504Z,9.02
2023-01-09T00:37:05.997Z,8.65
2023-01-09T00:42:14.641Z,8.31
2023-01-09T00:47:22.801Z,8.29
2023-01-09T00:52:31.387Z,8.64
2023-01-09T00:57:39.672Z,8.56
2023-01-09T01:02:48.362Z,9.38
2023-01-09T01:07:56.657Z,9.66
2023-01-09T01:13:05.297Z,9.44
2023-01-09T01:18:13.477Z,9.01
2023-01-09T01:23:22.032Z,8.79
2023-01-09T01:28:30.588Z,9.49
2023-01-09T01:33:39.380Z,9.68
2023-01-09T01:38:47.742Z,9.71
2023-01-09T01:43:56.573Z,9.60
2023-01-09T01:49:04.742Z,9.33
2023-01-09T01:54:13.637Z,8.91
2023-01-09T01:59:21.850Z,9.37
2023-01-09T02:04:30.371Z,9.45
2023-01-09T02:09:38.849Z,9.41
2023-01-09T02:14:47.425Z,9.05
2023-01-09T02:19:55.510Z,9.33
2023-01-09T02:25:04.148Z,9.53
2023-01-09T02:30:12.476Z,9.95
2023-01-09T02:35:20.992Z,10.03
2023-01-09T02:40:29.429Z,9.48
2023-01-09T02:45:37.887Z,9.58
2023-01-09T02:50:46.099Z,9.62
2023-01-09T02:55:54.413Z,9.61
2023-01-09T03:01:02.862Z,9.29
2023-01-09T03:06:11.250Z,9.43
2023-01-09T03:11:19.639Z,9.22
2023-01-09T03:16:28.449Z,9.62
2023-01-09T03:21:36.794Z,9.38
2023-01-09T03:26:45.429Z,9.11
2023-01-09T03:31:54.056Z,8.85
2023-01-09T03:37:02.528Z,8.66
2023-01-09T03:42:10.886Z,8.59
2023-01-09T03:47:19.309Z,8.41
2023-01-09T03:52:27.871Z,8.65
2023-01-09T03:57:36.401Z,8.68
2023-01-09T04:02:44.567Z,8.75
2023-01-09T04:07:53.278Z,8.25
2023-01-09T04:13:01.623Z,8.18
2023-01-09T04:18:10.220Z,8.26
2023-01-09T04:23:18.622Z,7.99
2023-01-09T04:28:27.514Z,8.52
2023-01-09T04:33:35.723Z,8.15
2023-01-09T04:38:44.594Z,8.28
2023-01-09T04:43:53.132Z,8.41
2023-01-09T04:49:02.300Z,8.08
2023-01-09T04:54:10.649Z,8.22
2023-01-09T04:59:19.887Z,8.62
2023-01-09T05:04:28.719Z,8.02
2023-01-09T05:09:37.572Z,10.24
2023-01-09T05:14:45.923Z,8.81
2023-01-09T05:19:54.585Z,8.06
2023-01-09T05:25:03.258Z,8.26
2023-01-09T05:30:13.667Z,8.26
2023-01-09T05:35:20.609Z,10.89
2023-01-09T05:40:38.488Z,8.45
2023-01-09T05:45:37.447Z,8.76
2023-01-09T05:50:46.250Z,8.41
2023-01-09T05:55:54.462Z,8.89
2023-01-09T06:01:03.515Z,8.41
2023-01-09T06:06:12.459Z,8.59
2023-01-09T06:11:21.807Z,8.41
2023-01-09T06:16:30.236Z,8.28
2023-01-09T06:21:39.678Z,8.00
2023-01-09T06:26:48.307Z,8.37
2023-01-09T06:31:57.381Z,8.29
2023-01-09T06:37:06.137Z,9.02
2023-01-09T06:42:15.090Z,9.36
2023-01-09T06:47:23.852Z,9.33
2023-01-09T06:52:32.545Z,9.34
2023-01-09T06:57:41.128Z,9.48
2023-01-09T07:02:49.921Z,9.06
2023-01-09T07:07:58.656Z,9.11
2023-01-09T07:13:07.352Z,9.27
2023-01-09T07:18:15.761Z,8.53
2023-01-09T07:23:24.905Z,7.98
2023-01-09T07:28:33.438Z,8.35
2023-01-09T07:33:43.161Z,8.57
2023-01-09T07:38:51.730Z,8.02
2023-01-09T07:44:00.324Z,8.56
2023-01-09T07:49:09.064Z,7.95
2023-01-09T07:54:18.002Z,8.29
2023-01-09T07:59:26.500Z,7.77
2023-01-09T08:04:34.957Z,8.23
2023-01-09T08:09:43.807Z,8.10
2023-01-09T08:14:52.477Z,9.44
2023-01-09T08:20:00.842Z,8.06
2023-01-09T08:25:12.222Z,8.11
2023-01-09T08:30:18.273Z,7.64
2023-01-09T08:35:27.538Z,10.72
2023-01-09T08:40:36.004Z,8.54
2023-01-09T08:45:45.233Z,8.33
2023-01-09T08:50:53.935Z,8.11
2023-01-09T08:56:03.195Z,7.67
2023-01-09T09:01:12.025Z,7.79
2023-01-09T09:06:21.603Z,7.79
2023-01-09T09:11:30.639Z,7.36
2023-01-09T09:16:39.629Z,7.66
2023-01-09T09:21:48.507Z,7.27
2023-01-09T09:26:58.098Z,7.68
2023-01-09T09:32:07.933Z,7.85
2023-01-09T09:37:17.782Z,7.72
2023-01-09T09:42:26.799Z,7.74
2023-01-09T09:47:37.605Z,7.62
2023-01-09T09:52:36.575Z,8.10
2023-01-09T09:57:45.639Z,8.17
2023-01-09T10:02:53.655Z,8.27
2023-01-09T10:08:14.915Z,7.60
2023-01-09T10:13:10.361Z,7.56
2023-01-09T10:18:19.990Z,7.54
2023-01-09T10:23:29.104Z,7.92
2023-01-09T10:28:38.255Z,7.87
2023-01-09T10:33:47.264Z,7.89
2023-01-09T10:38:56.164Z,7.18
2023-01-09T10:44:04.683Z,8.04
2023-01-09T10:49:14.099Z,7.69
2023-01-09T10:54:22.906Z,7.70
2023-01-09T10:59:31.834Z,8.37
2023-01-09T11:04:41.123Z,7.96
2023-01-09T11:09:50.720Z,8.45
2023-01-09T11:14:59.471Z,8.79
2023-01-09T11:20:08.928Z,8.64
2023-01-09T11:25:17.726Z,8.37
2023-01-09T11:30:26.763Z,7.92
2023-01-09T11:35:35.800Z,8.02
2023-01-09T11:40:44.941Z,7.82
2023-01-09T11:46:00.737Z,8.38
2023-01-09T11:51:01.712Z,9.19
2023-01-09T11:56:10.418Z,8.45
2023-01-09T12:01:19.844Z,8.38
2023-01-09T12:06:28.608Z,8.28
2023-01-09T12:11:37.735Z,8.76
2023-01-09T12:16:46.363Z,8.72
2023-01-09T12:21:57.102Z,8.56
2023-01-09T12:26:55.574Z,8.49
2023-01-09T12:32:04.678Z,8.14
2023-01-09T12:37:14.374Z,8.03
2023-01-09T12:42:23.764Z,8.69
2023-01-09T12:47:32.987Z,8.29
2023-01-09T12:52:42.936Z,8.49
2023-01-09T12:57:51.952Z,8.58
2023-01-09T13:03:11.977Z,8.39
2023-01-09T13:08:09.502Z,9.04
2023-01-09T13:13:20.124Z,8.71
2023-01-09T13:18:19.743Z,8.79
2023-01-09T13:23:28.522Z,9.19
2023-01-09T13:28:37.445Z,29.56
2023-01-09T13:33:46.647Z,29.54
2023-01-09T13:38:55.834Z,13.82
2023-01-09T13:44:04.584Z,18.03
2023-01-09T13:49:13.757Z,10.62
2023-01-09T13:54:22.547Z,10.77
2023-01-09T13:59:31.512Z,22.83
2023-01-09T14:04:43.211Z,12.06
2023-01-09T14:09:41.793Z,10.71
2023-01-09T14:14:50.574Z,9.27
2023-01-09T14:19:59.398Z,9.37
2023-01-09T14:25:08.609Z,9.69
2023-01-09T14:30:17.208Z,8.72
2023-01-09T14:35:26.182Z,8.09
2023-01-09T14:40:35.294Z,8.65
2023-01-09T14:45:44.612Z,8.37
2023-01-09T14:50:53.439Z,8.12
2023-01-09T14:56:04.044Z,8.84
2023-01-09T15:01:10.589Z,8.93
2023-01-09T15:06:19.451Z,8.44
2023-01-09T15:11:27.506Z,7.88
2023-01-09T15:16:36.537Z,7.72
2023-01-09T15:21:45.118Z,8.35
2023-01-09T15:26:53.649Z,8.32
2023-01-09T15:32:02.126Z,8.07
2023-01-09T15:37:11.056Z,8.51
2023-01-09T15:42:19.625Z,8.26
2023-01-09T15:47:30.437Z,8.64
2023-01-09T15:52:28.978Z,8.56
2023-01-09T15:57:38.204Z,7.71
2023-01-09T16:02:46.609Z,8.74
2023-01-09T16:07:55.695Z,8.47
2023-01-09T16:13:03.980Z,8.34
2023-01-09T16:18:13.140Z,8.29
2023-01-09T16:23:22.130Z,8.35
2023-01-09T16:28:30.629Z,8.09
2023-01-09T16:33:38.945Z,8.16
2023-01-09T16:38:47.685Z,8.77
2023-01-09T16:43:56.374Z,8.48
2023-01-09T16:49:06.113Z,8.75
2023-01-09T16:54:14.757Z,8.46
2023-01-09T16:59:24.007Z,8.47
2023-01-09T17:04:33.230Z,8.47
2023-01-09T17:09:42.331Z,8.54
2023-01-09T17:14:51.426Z,7.86
2023-01-09T17:20:01.329Z,7.84
2023-01-09T17:25:10.498Z,8.03
2023-01-09T17:30:22.024Z,7.43
2023-01-09T17:35:21.493Z,7.93
2023-01-09T17:40:31.976Z,7.94
2023-01-09T17:45:31.130Z,7.90
2023-01-09T17:50:40.258Z,7.63
2023-01-09T17:55:48.807Z,7.55
2023-01-09T18:00:58.500Z,7.71
2023-01-09T18:06:08.818Z,7.86
2023-01-09T18:11:08.062Z,7.81
2023-01-09T18:16:17.449Z,7.32
2023-01-09T18:21:26.792Z,7.33
2023-01-09T18:26:36.624Z,7.71
2023-01-09T18:31:46.458Z,7.33
2023-01-09T18:36:55.541Z,7.29
2023-01-09T18:42:05.418Z,7.62
2023-01-09T18:47:15.749Z,7.50
2023-01-09T18:52:15.053Z,7.75
2023-01-09T18:57:23.792Z,7.68
2023-01-09T19:02:34.506Z,7.86
2023-01-09T19:07:34.321Z,7.54
2023-01-09T19:12:44.073Z,7.54
2023-01-09T19:17:53.082Z,7.30
2023-01-09T19:23:02.700Z,7.10
2023-01-09T19:28:11.369Z,7.41
2023-01-09T19:33:20.704Z,7.63
2023-01-09T19:38:29.178Z,7.35
2023-01-09T19:43:39.851Z,7.18
2023-01-09T19:48:45.684Z,6.87
2023-01-09T19:53:55.102Z,6.32
2023-01-09T19:59:03.367Z,6.56
2023-01-09T20:04:12.286Z,6.41
2023-01-09T20:09:20.756Z,6.62
2023-01-09T20:14:29.783Z,6.50
2023-01-09T20:19:38.608Z,6.43
2023-01-09T20:24:47.392Z,6.58
2023-01-09T20:29:56.332Z,6.47
2023-01-09T20:35:05.263Z,6.40
2023-01-09T20:40:14.030Z,6.25
2023-01-09T20:45:23.365Z,6.44
2023-01-09T20:50:32.074Z,6.25
2023-01-09T20:55:41.071Z,6.36
2023-01-09T21:00:49.446Z,6.35
2023-01-09T21:05:58.426Z,6.36
2023-01-09T21:11:07.417Z,6.01
2023-01-09T21:16:16.418Z,6.21
2023-01-09T21:21:24.626Z,6.01
2023-01-09T21:26:38.383Z,6.37
2023-01-09T21:31:37.153Z,5.87
2023-01-09T21:36:46.268Z,5.66
2023-01-09T21:41:55.207Z,6.07
2023-01-09T21:47:04.633Z,6.10
2023-01-09T21:52:13.136Z,6.13
2023-01-09T21:57:22.365Z,6.03
2023-01-09T22:02:30.884Z,6.27
2023-01-09T22:07:39.770Z,5.76
2023-01-09T22:12:48.445Z,5.90
2023-01-09T22:17:57.518Z,5.98
2023-01-09T22:23:05.957Z,5.61
2023-01-09T22:28:14.671Z,5.73
2023-01-09T22:33:25.143Z,5.98
2023-01-09T22:38:31.561Z,5.45
2023-01-09T22:43:39.962Z,5.37
2023-01-09T22:48:48.797Z,5.63
2023-01-09T22:53:57.656Z,5.76
2023-01-09T22:59:06.415Z,5.80
2023-01-09T23:04:14.989Z,5.59
2023-01-09T23:09:23.848Z,5.56
2023-01-09T23:14:32.427Z,5.24
2023-01-09T23:19:41.318Z,5.45
2023-01-09T23:24:49.828Z,5.43
2023-01-09T23:29:58.534Z,5.29
2023-01-09T23:35:06.914Z,5.77
2023-01-09T23:40:15.540Z,5.71
2023-01-09T23:45:23.825Z,5.44
2023-01-09T23:50:33.104Z,5.85
2023-01-09T23:55:41.594Z,5.30
